Barquisimeto, Barquisimeto Jacinto Lara International Airport (SVBM)

NameBarquisimeto Jacinto Lara International Airport
CityBarquisimeto
CountryVenezuela
ICAOSVBM
IATABRM
Altitude622 m
CoordinatesGoogle Map
Live Air TrafficLiveATC.net
METARSVBM 190600Z 09002KT 9999 SCT016 22/21 Q1014
2018-10-19 06:00:00 Wind: East (90°) 1.03 m/s - Visibility: > 10000 m - Temperature: 22 °C - Dew point: 21 °C - Humidity: 94.1% - Pressure: 1014 hPa
Statistics

The table below shows the detailed information of all flights to/from Barquisimeto, Barquisimeto Jacinto Lara International Airport (SVBM).